John G — WDF2677 — position and weather

sailwx.info

Track history (hours):
 
Tides and Currents Weather Stations Pressure Air Temp Water Temp Dewpoint Dewpoint Depression Visibility Wind Speed Wind Dir Waves Ship Positions

John G

Owner: Marquette Transportation Company Offshore LLC, Jefferson, LA. More information available from US FCC via Universal Licensing System and Coast Guard Vessel Documentation Center.

Last reported at 2016-Apr-30 00:32 UTC. Time now 2016-Apr-30 01:25 UTC.
Position N 29°36' W 094°23'.

Length 24 m.

Type: Towing. MMSI: 367009680.

Date/timePositionNaut miles runAvg speedWind from/ knotsBaromVisibWave heightAir tempDewpointWater temp
2016-Apr-30 00:32N 29°36' W 094°23'25 4.1
2016-Apr-29 18:23N 29°22' W 094°47'0 0.1
2016-Apr-29 17:25N 29°22' W 094°47'0 0.0
2016-Apr-29 16:30N 29°22' W 094°47'4 4.6
2016-Apr-29 15:33N 29°23' W 094°52'4 0.1
2016-Apr-27 19:30N 29°27' W 094°50'8 7.8
2016-Apr-27 18:33N 29°33' W 094°55'8 8.0
2016-Apr-27 17:33N 29°40' W 094°59'7 6.8
2016-Apr-27 16:33N 29°45' W 095°04'1 1.5
2016-Apr-27 15:33N 29°47' W 095°05'0 0.0
2016-Apr-27 13:33N 29°47' W 095°05'0 0.0
2016-Apr-27 12:33N 29°47' W 095°05'0 0.0
2016-Apr-27 11:33N 29°47' W 095°05'0 0.0
2016-Apr-27 10:33N 29°47' W 095°05'0 0.0
2016-Apr-27 09:33N 29°47' W 095°05'0 0.0
2016-Apr-27 08:31N 29°47' W 095°05'0 0.0
2016-Apr-27 07:26N 29°47' W 095°05'0 0.0
2016-Apr-27 06:33N 29°47' W 095°05'0 0.0
2016-Apr-27 05:33N 29°47' W 095°05'0 0.0
2016-Apr-27 04:32N 29°47' W 095°05'0 0.0
2016-Apr-27 03:33N 29°47' W 095°05'0 0.0
2016-Apr-27 02:27N 29°47' W 095°05'0 0.0
2016-Apr-27 01:27N 29°47' W 095°05'1 0.9
2016-Apr-27 00:29N 29°47' W 095°05'0 0.1
2016-Apr-26 23:28N 29°47' W 095°06'1 1.2
2016-Apr-26 22:15N 29°46' W 095°05'4 5.0
2016-Apr-26 21:28N 29°44' W 095°09'5 0.9
2016-Apr-26 15:31N 29°44' W 095°15'5 4.9
2016-Apr-26 14:32N 29°45' W 095°10'4 2.6
2016-Apr-26 13:04N 29°45' W 095°06'2 3.4
2016-Apr-26 12:25N 29°47' W 095°05'0 0.0
2016-Apr-26 11:33N 29°47' W 095°05'0 0.0
2016-Apr-26 10:32N 29°47' W 095°05'0 0.0
2016-Apr-26 09:24N 29°47' W 095°05'1 0.7
2016-Apr-26 08:27N 29°47' W 095°06'0 0.0
2016-Apr-26 07:09N 29°47' W 095°06'0 0.0
2016-Apr-26 06:33N 29°47' W 095°06'3 2.2
2016-Apr-26 05:18N 29°44' W 095°06'4 0.3
2016-Apr-25 15:28N 29°45' W 095°12'5 6.0
2016-Apr-25 14:33N 29°46' W 095°05'2 0.4
2016-Apr-25 08:31N 29°48' W 095°04'0 0.0
2016-Apr-25 07:24N 29°48' W 095°04'0 0.0
2016-Apr-25 06:33N 29°48' W 095°04'0 0.0
2016-Apr-25 05:33N 29°48' W 095°04'0 0.0
2016-Apr-25 04:33N 29°48' W 095°04'0 0.0
2016-Apr-25 03:33N 29°48' W 095°04'2 0.3
2016-Apr-24 21:17N 29°47' W 095°06'1 1.4
2016-Apr-24 20:31N 29°47' W 095°04'0 0.1
2016-Apr-24 19:30N 29°47' W 095°04'5 3.7
2016-Apr-24 18:15N 29°44' W 095°08'2 0.5
2016-Apr-24 15:14N 29°44' W 095°10'0 0.0
2016-Apr-24 14:32N 29°44' W 095°10'0 0.0
2016-Apr-24 13:31N 29°44' W 095°10'0 0.0
2016-Apr-24 12:33N 29°44' W 095°10'0 0.0
2016-Apr-24 10:22N 29°44' W 095°10'0 0.0
2016-Apr-24 03:17N 29°44' W 095°10'0 0.0
2016-Apr-24 02:33N 29°44' W 095°10'0 0.0
2016-Apr-24 01:32N 29°44' W 095°10'0 0.0
2016-Apr-24 00:32N 29°44' W 095°10'0 0.0
2016-Apr-23 23:32N 29°44' W 095°10'0 0.0
2016-Apr-23 22:33N 29°44' W 095°10'0 0.0
2016-Apr-23 21:28N 29°44' W 095°10'0 0.0
2016-Apr-23 20:33N 29°44' W 095°10'0 0.0
2016-Apr-23 19:31N 29°44' W 095°10'0 0.0
2016-Apr-21 18:31N 29°45' W 095°10'6 5.6
2016-Apr-21 17:30N 29°47' W 095°04'0 0.1
2016-Apr-21 16:22N 29°47' W 095°04'1 1.1
2016-Apr-21 15:09N 29°46' W 095°05'4 6.0
2016-Apr-21 14:31N 29°44' W 095°09'1 0.2
2016-Apr-21 08:27N 29°44' W 095°10'0 0.0
2016-Apr-21 07:33N 29°44' W 095°10'0 0.0
2016-Apr-21 06:33N 29°44' W 095°10'0 0.0
2016-Apr-21 05:33N 29°44' W 095°10'0 0.0
2016-Apr-21 04:31N 29°44' W 095°10'0 0.0
2016-Apr-21 03:33N 29°44' W 095°10'0 0.0
2016-Apr-21 02:33N 29°44' W 095°10'0 0.0
2016-Apr-21 01:32N 29°44' W 095°10'0 0.0
2016-Apr-21 00:33N 29°44' W 095°10'0 0.0
2016-Apr-20 23:33N 29°44' W 095°10'0 0.0
2016-Apr-20 12:29N 29°44' W 095°10'0 0.2
2016-Apr-20 11:17N 29°45' W 095°10'4 4.6
2016-Apr-20 10:27N 29°45' W 095°06'3 3.3
2016-Apr-20 09:33N 29°44' W 095°03'4 4.0
2016-Apr-20 08:34N 29°41' W 094°59'5 4.9
2016-Apr-20 07:33N 29°37' W 094°57'6 5.6
2016-Apr-20 06:33N 29°32' W 094°54'6 6.0
2016-Apr-20 05:30N 29°26' W 094°50'  
Track history (hours):
 
Tides and Currents Weather Stations Pressure Air Temp Water Temp Dewpoint Dewpoint Depression Visibility Wind Speed Wind Dir Waves Ship Positions

John G

Owner: Marquette Transportation Company Offshore LLC, Jefferson, LA. More information available from US FCC via Universal Licensing System and Coast Guard Vessel Documentation Center.

Last reported at 2016-Apr-30 00:32 UTC. Time now 2016-Apr-30 01:25 UTC.
Position N 29°36' W 094°23'.

Length 24 m.

Type: Towing. MMSI: 367009680.

Date/timePositionNaut miles runAvg speedWind from/ knotsBaromVisibWave heightAir tempDewpointWater temp
2016-Apr-30 00:32N 29°36' W 094°23'25 4.1
2016-Apr-29 18:23N 29°22' W 094°47'0 0.1
2016-Apr-29 17:25N 29°22' W 094°47'0 0.0
2016-Apr-29 16:30N 29°22' W 094°47'4 4.6
2016-Apr-29 15:33N 29°23' W 094°52'4 0.1
2016-Apr-27 19:30N 29°27' W 094°50'8 7.8
2016-Apr-27 18:33N 29°33' W 094°55'8 8.0
2016-Apr-27 17:33N 29°40' W 094°59'7 6.8
2016-Apr-27 16:33N 29°45' W 095°04'1 1.5
2016-Apr-27 15:33N 29°47' W 095°05'0 0.0
2016-Apr-27 13:33N 29°47' W 095°05'0 0.0
2016-Apr-27 12:33N 29°47' W 095°05'0 0.0
2016-Apr-27 11:33N 29°47' W 095°05'0 0.0
2016-Apr-27 10:33N 29°47' W 095°05'0 0.0
2016-Apr-27 09:33N 29°47' W 095°05'0 0.0
2016-Apr-27 08:31N 29°47' W 095°05'0 0.0
2016-Apr-27 07:26N 29°47' W 095°05'0 0.0
2016-Apr-27 06:33N 29°47' W 095°05'0 0.0
2016-Apr-27 05:33N 29°47' W 095°05'0 0.0
2016-Apr-27 04:32N 29°47' W 095°05'0 0.0
2016-Apr-27 03:33N 29°47' W 095°05'0 0.0
2016-Apr-27 02:27N 29°47' W 095°05'0 0.0
2016-Apr-27 01:27N 29°47' W 095°05'1 0.9
2016-Apr-27 00:29N 29°47' W 095°05'0 0.1
2016-Apr-26 23:28N 29°47' W 095°06'1 1.2
2016-Apr-26 22:15N 29°46' W 095°05'4 5.0
2016-Apr-26 21:28N 29°44' W 095°09'5 0.9
2016-Apr-26 15:31N 29°44' W 095°15'5 4.9
2016-Apr-26 14:32N 29°45' W 095°10'4 2.6
2016-Apr-26 13:04N 29°45' W 095°06'2 3.4
2016-Apr-26 12:25N 29°47' W 095°05'0 0.0
2016-Apr-26 11:33N 29°47' W 095°05'0 0.0
2016-Apr-26 10:32N 29°47' W 095°05'0 0.0
2016-Apr-26 09:24N 29°47' W 095°05'1 0.7
2016-Apr-26 08:27N 29°47' W 095°06'0 0.0
2016-Apr-26 07:09N 29°47' W 095°06'0 0.0
2016-Apr-26 06:33N 29°47' W 095°06'3 2.2
2016-Apr-26 05:18N 29°44' W 095°06'4 0.3
2016-Apr-25 15:28N 29°45' W 095°12'5 6.0
2016-Apr-25 14:33N 29°46' W 095°05'2 0.4
2016-Apr-25 08:31N 29°48' W 095°04'0 0.0
2016-Apr-25 07:24N 29°48' W 095°04'0 0.0
2016-Apr-25 06:33N 29°48' W 095°04'0 0.0
2016-Apr-25 05:33N 29°48' W 095°04'0 0.0
2016-Apr-25 04:33N 29°48' W 095°04'0 0.0
2016-Apr-25 03:33N 29°48' W 095°04'2 0.3
2016-Apr-24 21:17N 29°47' W 095°06'1 1.4
2016-Apr-24 20:31N 29°47' W 095°04'0 0.1
2016-Apr-24 19:30N 29°47' W 095°04'5 3.7
2016-Apr-24 18:15N 29°44' W 095°08'2 0.5
2016-Apr-24 15:14N 29°44' W 095°10'0 0.0
2016-Apr-24 14:32N 29°44' W 095°10'0 0.0
2016-Apr-24 13:31N 29°44' W 095°10'0 0.0
2016-Apr-24 12:33N 29°44' W 095°10'0 0.0
2016-Apr-24 10:22N 29°44' W 095°10'0 0.0
2016-Apr-24 03:17N 29°44' W 095°10'0 0.0
2016-Apr-24 02:33N 29°44' W 095°10'0 0.0
2016-Apr-24 01:32N 29°44' W 095°10'0 0.0
2016-Apr-24 00:32N 29°44' W 095°10'0 0.0
2016-Apr-23 23:32N 29°44' W 095°10'0 0.0
2016-Apr-23 22:33N 29°44' W 095°10'0 0.0
2016-Apr-23 21:28N 29°44' W 095°10'0 0.0
2016-Apr-23 20:33N 29°44' W 095°10'0 0.0
2016-Apr-23 19:31N 29°44' W 095°10'0 0.0
2016-Apr-21 18:31N 29°45' W 095°10'6 5.6
2016-Apr-21 17:30N 29°47' W 095°04'0 0.1
2016-Apr-21 16:22N 29°47' W 095°04'1 1.1
2016-Apr-21 15:09N 29°46' W 095°05'4 6.0
2016-Apr-21 14:31N 29°44' W 095°09'1 0.2
2016-Apr-21 08:27N 29°44' W 095°10'0 0.0
2016-Apr-21 07:33N 29°44' W 095°10'0 0.0
2016-Apr-21 06:33N 29°44' W 095°10'0 0.0
2016-Apr-21 05:33N 29°44' W 095°10'0 0.0
2016-Apr-21 04:31N 29°44' W 095°10'0 0.0
2016-Apr-21 03:33N 29°44' W 095°10'0 0.0
2016-Apr-21 02:33N 29°44' W 095°10'0 0.0
2016-Apr-21 01:32N 29°44' W 095°10'0 0.0
2016-Apr-21 00:33N 29°44' W 095°10'0 0.0
2016-Apr-20 23:33N 29°44' W 095°10'0 0.0
2016-Apr-20 12:29N 29°44' W 095°10'0 0.2
2016-Apr-20 11:17N 29°45' W 095°10'4 4.6
2016-Apr-20 10:27N 29°45' W 095°06'3 3.3
2016-Apr-20 09:33N 29°44' W 095°03'4 4.0
2016-Apr-20 08:34N 29°41' W 094°59'5 4.9
2016-Apr-20 07:33N 29°37' W 094°57'6 5.6
2016-Apr-20 06:33N 29°32' W 094°54'6 6.0
2016-Apr-20 05:30N 29°26' W 094°50'  

Dump ship's entire track history